Latest Weather Observations for Toowoomba

IDQ60801

Issued at 12:03 am EST Friday 7 October 2022 (issued every 10 minutes, with the page automatically refreshed every 10 minutes)

About weather observations | Map of weather stations | Latest weather observations for QLD | Other Formats
Station Details ID: 041529 Name: TOOWOOMBA AIRPORT Lat: -27.54 Lon: 151.91 Height: 640.9 m
Data from the previous 72 hours. | See also: Recent months at Toowoomba
Date/Time
EST
Temp
°C
App
Temp
°C
Dew
Point
°C
Rel
Hum
%
Delta-T
°C
Wind Press
QNH
hPa
Press
MSL
hPa
Rain since
9am
mm
Dir  Spd
km/h
Gust
km/h
Spd
kts
Gust
kts
07/12:00am 13.6 10.2 13.6 100 0.0 E 24 33 13 18 1022.6 1020.2 1.2
 
Date/Time
EST
Temp
°C
App
Temp
°C
Dew
Point
°C
Rel
Hum
%
Delta-T
°C
Wind Press
QNH
hPa
Press
MSL
hPa
Rain since
9am
mm
Dir  Spd
km/h
Gust
km/h
Spd
kts
Gust
kts
06/11:59pm 13.6 10.2 13.6 100 0.0 E 24 33 13 18 1022.6 1020.2 1.2
06/11:32pm 13.6 10.2 13.6 100 0.0 E 24 30 13 16 1022.8 1020.4 1.2
06/11:30pm 13.6 10.2 13.6 100 0.0 E 24 32 13 17 1022.9 1020.5 1.2
06/11:00pm 13.6 10.6 13.6 100 0.0 E 22 30 12 16 1023.2 1020.8 1.2
06/10:30pm 13.6 9.0 13.6 100 0.0 E 30 39 16 21 1023.0 1020.6 1.0
06/10:11pm 13.6 9.4 13.6 100 0.0 E 28 35 15 19 1023.2 1020.8 1.0
06/10:00pm 13.6 10.2 13.6 100 0.0 E 24 32 13 17 1023.4 1021.0 1.0
06/09:30pm 13.7 10.7 13.7 100 0.0 E 22 30 12 16 1023.6 1021.2 1.0
06/09:00pm 13.8 10.4 13.8 100 0.0 E 24 33 13 18 1023.6 1021.2 1.0
06/08:30pm 13.9 9.8 13.9 100 0.0 E 28 35 15 19 1023.4 1021.0 1.0
06/08:13pm 13.9 10.2 13.9 100 0.0 E 26 33 14 18 1023.4 1021.0 1.0
06/08:12pm 13.9 10.2 13.9 100 0.0 E 26 33 14 18 1023.3 1020.9 1.0
06/08:00pm 13.9 9.8 13.9 100 0.0 E 28 35 15 19 1023.3 1020.9 1.0
06/07:47pm 14.0 10.3 14.0 100 0.0 E 26 35 14 19 1023.1 1020.7 0.8
06/07:36pm 14.1 11.2 14.1 100 0.0 E 22 32 12 17 1023.2 1020.8 0.8
06/07:32pm 14.2 11.4 14.2 100 0.0 E 22 30 12 16 1023.2 1020.8 0.8
06/07:30pm 14.2 11.4 14.2 100 0.0 E 22 30 12 16 1023.2 1020.8 0.8
06/07:00pm 14.2 11.7 14.2 100 0.0 E 20 28 11 15 1022.9 1020.5 0.8
06/06:30pm 14.3 11.1 14.3 100 0.0 E 24 32 13 17 1022.4 1020.0 0.8
06/06:26pm 14.3 11.5 14.3 100 0.0 E 22 32 12 17 1022.4 1020.0 0.8
06/06:09pm 14.3 12.1 14.3 100 0.0 E 19 24 10 13 1022.3 1019.9 0.6
06/06:07pm 14.3 12.1 14.3 100 0.0 E 19 24 10 13 1022.4 1020.0 0.6
06/06:00pm 14.3 12.1 14.3 100 0.0 E 19 24 10 13 1022.3 1019.9 0.6
06/05:30pm 14.6 12.5 14.6 100 0.0 E 19 24 10 13 1022.2 1019.8 0.6
06/05:00pm 14.8 13.5 14.8 100 0.0 E 15 20 8 11 1022.1 1019.6 0.6
06/04:34pm 14.8 13.1 14.8 100 0.0 E 17 24 9 13 1022.0 1019.5 0.6
06/04:30pm 14.8 13.1 14.8 100 0.0 E 17 20 9 11 1022.0 1019.5 0.6
06/04:00pm 15.0 12.8 14.8 99 0.1 E 20 28 11 15 1021.6 1019.2 0.6
06/03:30pm 14.8 12.6 14.8 100 0.0 E 20 26 11 14 1021.5 1019.1 0.6
06/03:22pm 14.6 12.3 14.6 100 0.0 ENE 20 26 11 14 1021.5 1019.1 0.6
06/03:00pm 14.4 12.0 14.4 100 0.0 E 20 26 11 14 1021.7 1019.3 0.6
06/02:48pm 14.9 12.9 14.9 100 0.0 E 19 26 10 14 1021.9 1019.4 0.6
06/02:39pm 15.0 12.8 15.0 100 0.0 E 20 26 11 14 1021.7 1019.3 0.6
06/02:30pm 15.4 13.6 15.4 100 0.0 E 19 22 10 12 1021.6 1019.2 0.6
06/02:00pm 15.0 13.4 15.0 100 0.0 ENE 17 20 9 11 1022.2 1019.8 0.6
06/01:59pm 15.1 13.5 15.1 100 0.0 ENE 17 20 9 11 1022.2 1019.8 0.6
06/01:48pm 14.9 13.6 14.9 100 0.0 ENE 15 20 8 11 1022.3 1019.9 0.4
06/01:47pm 14.9 13.6 14.9 100 0.0 ENE 15 22 8 12 1022.3 1019.9 0.4
06/01:30pm 15.0 13.0 15.0 100 0.0 E 19 24 10 13 1022.4 1020.0 0.4
06/01:18pm 15.0 13.4 15.0 100 0.0 E 17 24 9 13 1022.5 1020.1 0.2
06/01:00pm 15.2 13.3 15.2 100 0.0 E 19 22 10 12 1022.6 1020.2 0.0
06/12:30pm 15.3 13.2 15.3 100 0.0 E 20 26 11 14 1023.0 1020.6 0.0
06/12:00pm 15.2 13.1 15.2 100 0.0 E 20 24 11 13 1023.4 1021.0 0.0
06/11:30am 15.1 13.2 15.1 100 0.0 E 19 24 10 13 1023.8 1021.4 0.0
06/11:00am 14.4 12.6 14.4 100 0.0 ENE 17 22 9 12 1024.1 1021.7 0.0
06/10:30am 14.0 11.7 14.0 100 0.0 ENE 19 24 10 13 1024.4 1022.0 0.0
06/10:00am 13.2 10.4 13.2 100 0.0 ENE 20 28 11 15 1024.5 1022.1 0.0
06/09:39am 13.6 10.2 13.6 100 0.0 ENE 24 33 13 18 1024.3 1021.9 0.0
06/09:30am 13.5 10.0 13.5 100 0.0 E 24 30 13 16 1024.3 1021.9 0.0
06/09:00am 13.3 9.8 13.3 100 0.0 E 24 32 13 17 1024.2 1021.8 0.8
06/08:30am 13.0 9.4 13.0 100 0.0 E 24 30 13 16 1024.2 1021.8 0.8
06/08:00am 12.6 8.9 12.6 100 0.0 E 24 35 13 19 1024.0 1021.6 0.8
06/07:30am 12.4 9.0 12.4 100 0.0 E 22 30 12 16 1023.9 1021.5 0.8
06/07:00am 12.3 8.1 12.3 100 0.0 E 26 33 14 18 1023.9 1021.5 0.8
06/06:30am 12.2 7.9 12.2 100 0.0 E 26 32 14 17 1023.7 1021.3 0.8
06/06:00am 12.3 8.5 12.3 100 0.0 E 24 32 13 17 1023.3 1020.9 0.8
06/05:33am 12.3 8.5 12.3 100 0.0 E 24 30 13 16 1023.2 1020.8 0.8
06/05:30am 12.3 8.5 12.3 100 0.0 E 24 30 13 16 1023.2 1020.8 0.8
06/05:00am 12.3 8.5 12.3 100 0.0 E 24 30 13 16 1023.0 1020.6 0.8
06/04:30am 12.3 8.8 12.3 100 0.0 E 22 26 12 14 1022.8 1020.4 0.6
06/04:00am 12.3 9.8 12.3 100 0.0 E 17 22 9 12 1022.9 1020.5 0.6
06/03:30am 12.3 9.8 12.3 100 0.0 E 17 22 9 12 1022.8 1020.4 0.6
06/03:01am 12.3 9.4 12.3 100 0.0 E 19 24 10 13 1022.6 1020.2 0.6
06/03:00am 12.3 9.2 12.3 100 0.0 E 20 24 11 13 1022.6 1020.2 0.6
06/02:30am 12.3 9.2 12.3 100 0.0 E 20 28 11 15 1022.5 1020.1 0.6
06/02:25am 12.3 8.5 12.3 100 0.0 E 24 32 13 17 1022.5 1020.1 0.6
06/02:03am 12.2 8.3 12.2 100 0.0 E 24 30 13 16 1022.7 1020.3 0.6
06/02:01am 12.3 8.5 12.3 100 0.0 E 24 32 13 17 1022.8 1020.4 0.6
06/02:00am 12.2 8.3 12.2 100 0.0 E 24 32 13 17 1022.8 1020.4 0.6
06/01:57am 12.3 8.1 12.3 100 0.0 E 26 32 14 17 1022.9 1020.5 0.6
06/01:44am 12.2 8.7 12.2 100 0.0 ENE 22 28 12 15 1023.1 1020.7 0.6
06/01:30am 12.2 7.6 12.2 100 0.0 E 28 35 15 19 1023.2 1020.8 0.6
06/01:29am 12.3 7.7 12.3 100 0.0 E 28 35 15 19 1023.1 1020.7 0.6
06/01:17am 12.2 7.6 12.2 100 0.0 E 28 37 15 20 1023.1 1020.7 0.6
06/01:12am 12.2 7.9 12.2 100 0.0 E 26 32 14 17 1023.4 1021.0 0.6
06/01:00am 12.3 9.4 12.3 100 0.0 E 19 26 10 14 1023.6 1021.2 0.6
06/12:30am 12.4 7.8 12.4 100 0.0 E 28 37 15 20 1023.4 1021.0 0.4
06/12:00am 12.5 7.0 12.5 100 0.0 E 33 43 18 23 1023.3 1020.9 0.4
 
Date/Time
EST
Temp
°C
App
Temp
°C
Dew
Point
°C
Rel
Hum
%
Delta-T
°C
Wind Press
QNH
hPa
Press
MSL
hPa
Rain since
9am
mm
Dir  Spd
km/h
Gust
km/h
Spd
kts
Gust
kts
05/11:42pm 12.7 7.3 12.7 100 0.0 E 33 44 18 24 1023.3 1020.9 0.2
05/11:30pm 12.7 7.5 12.7 100 0.0 E 32 41 17 22 1023.6 1021.2 0.2
05/11:00pm 12.8 8.7 12.8 100 0.0 E 26 33 14 18 1024.0 1021.6 0.2
05/10:30pm 13.0 8.6 13.0 100 0.0 E 28 37 15 20 1024.4 1022.0 0.2
05/10:00pm 13.2 9.6 13.2 100 0.0 E 24 35 13 19 1024.5 1022.1 0.2
05/09:45pm 13.3 9.4 13.3 100 0.0 E 26 32 14 17 1024.6 1022.2 0.0
05/09:30pm 13.5 9.6 13.3 99 0.1 E 26 33 14 18 1024.6 1022.2 0.0
05/09:00pm 13.5 10.0 13.3 99 0.1 E 24 32 13 17 1024.3 1021.9 0.0
05/08:30pm 13.8 10.5 12.7 93 0.6 E 22 32 12 17 1024.3 1021.9 0.0
05/08:00pm 13.9 9.7 12.5 91 0.8 E 26 37 14 20 1023.9 1021.5 0.0
05/07:30pm 14.2 10.0 11.0 81 1.7 E 24 32 13 17 1023.8 1021.4 0.0
05/07:00pm 14.4 10.4 10.4 77 2.2 E 22 30 12 16 1023.4 1021.0 0.0
05/06:30pm 14.7 10.5 9.9 73 2.6 ENE 22 30 12 16 1023.1 1020.7 0.0
05/06:00pm 15.0 10.5 10.2 73 2.6 E 24 32 13 17 1022.8 1020.4 0.0
05/05:30pm 15.4 12.1 10.8 74 2.5 ENE 19 24 10 13 1023.1 1020.7 0.0
05/05:00pm 15.8 13.1 11.6 76 2.3 ENE 17 24 9 13 1023.1 1020.7 0.0
05/04:30pm 16.4 12.5 10.9 70 3.0 ENE 22 30 12 16 1022.7 1020.3 0.0
05/04:00pm 16.8 13.4 11.3 70 3.1 ENE 20 28 11 15 1022.5 1020.1 0.0
05/03:30pm 17.2 13.2 10.3 64 3.8 ENE 22 28 12 15 1022.4 1020.0 0.0
05/03:00pm 17.5 12.6 9.9 61 4.1 ENE 26 32 14 17 1022.4 1020.0 0.0
05/02:30pm 17.2 12.7 9.9 62 4.0 ENE 24 35 13 19 1022.8 1020.4 0.0
05/02:00pm 17.4 13.5 10.8 65 3.6 ENE 22 33 12 18 1022.8 1020.4 0.0
05/01:30pm 18.0 13.3 10.6 62 4.1 E 26 33 14 18 1023.3 1020.9 0.0
05/01:00pm 17.5 12.5 11.1 66 3.6 E 28 35 15 19 1023.6 1021.2 0.0
05/12:30pm 16.9 12.7 11.0 68 3.3 ENE 24 30 13 16 1024.4 1022.0 0.0
05/12:00pm 16.7 12.5 11.2 70 3.0 ENE 24 30 13 16 1024.4 1022.0 0.0
05/11:30am 15.7 11.7 10.5 71 2.8 NE 22 32 12 17 1025.1 1022.8 0.0
05/11:00am 15.7 11.3 10.5 71 2.8 NE 24 33 13 18 1025.3 1022.9 0.0
05/10:30am 16.4 12.6 11.1 71 2.9 ENE 22 32 12 17 1025.4 1023.0 0.0
05/10:00am 15.3 11.0 10.7 74 2.5 ENE 24 32 13 17 1025.1 1022.8 0.0
05/09:30am 15.3 10.8 11.3 77 2.2 ENE 26 33 14 18 1025.0 1022.7 0.0
05/09:00am 15.4 11.2 11.2 76 2.3 ENE 24 35 13 19 1025.0 1022.7 0.0
05/08:30am 14.4 10.2 11.2 81 1.8 ENE 24 32 13 17 1025.3 1022.9 0.0
05/08:00am 14.0 10.2 12.4 90 0.9 E 24 32 13 17 1024.9 1022.6 0.0
05/07:30am 13.4 10.2 13.2 99 0.1 E 22 30 12 16 1024.9 1022.6 0.0
05/07:00am 12.2 9.6 12.0 99 0.1 E 17 22 9 12 1025.0 1022.7 0.0
05/06:30am 11.6 8.9 11.6 100 0.0 ENE 17 20 9 11 1024.8 1022.4 0.0
05/06:00am 10.4 8.1 10.4 100 0.0 ENE 13 15 7 8 1024.6 1022.2 0.0
05/05:30am 10.3 8.0 10.3 100 0.0 ENE 13 15 7 8 1024.1 1021.7 0.0
05/05:00am 10.5 7.8 10.5 100 0.0 ENE 15 20 8 11 1023.4 1021.0 0.0
05/04:30am 10.2 7.5 10.2 100 0.0 ENE 15 19 8 10 1022.8 1020.4 0.0
05/04:00am 10.2 7.8 10.2 100 0.0 ENE 13 15 7 8 1022.8 1020.4 0.0
05/03:30am 10.5 7.8 10.5 100 0.0 ENE 15 17 8 9 1022.8 1020.4 0.0
05/03:00am 10.5 7.5 10.5 100 0.0 ENE 17 19 9 10 1022.8 1020.4 0.0
05/02:30am 10.8 7.8 10.8 100 0.0 ENE 17 20 9 11 1022.7 1020.3 0.0
05/02:00am 11.0 8.1 11.0 100 0.0 ENE 17 20 9 11 1023.0 1020.6 0.0
05/01:30am 11.0 8.1 11.0 100 0.0 ENE 17 20 9 11 1023.1 1020.7 0.0
05/01:00am 11.1 7.9 11.1 100 0.0 ENE 19 22 10 12 1023.2 1020.8 0.0
05/12:30am 10.9 8.7 10.9 100 0.0 E 13 15 7 8 1023.4 1021.0 0.0
05/12:00am 11.3 8.8 11.1 99 0.1 E 15 19 8 10 1023.6 1021.2 0.0
 
Date/Time
EST
Temp
°C
App
Temp
°C
Dew
Point
°C
Rel
Hum
%
Delta-T
°C
Wind Press
QNH
hPa
Press
MSL
hPa
Rain since
9am
mm
Dir  Spd
km/h
Gust
km/h
Spd
kts
Gust
kts
04/11:30pm 11.8 8.7 11.6 99 0.1 E 19 22 10 12 1023.9 1021.5 0.0
04/11:00pm 12.0 9.0 11.8 99 0.1 ENE 19 22 10 12 1023.8 1021.4 0.0
04/10:30pm 12.1 8.9 11.9 99 0.1 E 20 24 11 13 1023.8 1021.4 0.0
04/10:00pm 12.3 8.0 12.1 99 0.1 E 26 33 14 18 1023.8 1021.4 0.0
04/09:30pm 12.4 8.5 12.2 99 0.1 E 24 30 13 16 1023.9 1021.5 0.0
04/09:00pm 12.7 8.9 12.5 99 0.1 ESE 24 32 13 17 1023.8 1021.4 0.0
04/08:30pm 13.0 10.0 12.4 96 0.3 E 20 26 11 14 1023.8 1021.4 0.0
04/08:00pm 13.5 10.5 12.4 93 0.6 E 20 26 11 14 1023.2 1020.8 0.0
04/07:30pm 14.0 11.0 12.0 88 1.1 E 19 24 10 13 1023.0 1020.6 0.0
04/07:00pm 14.5 10.9 11.8 84 1.5 E 22 28 12 15 1022.6 1020.2 0.0
04/06:30pm 15.0 11.7 11.6 80 1.9 E 20 26 11 14 1022.4 1020.0 0.0
04/06:00pm 15.6 12.2 11.4 76 2.3 E 20 26 11 14 1022.4 1020.0 0.0
04/05:30pm 16.5 12.3 9.9 65 3.6 E 22 30 12 16 1022.3 1019.9 0.0
04/05:00pm 17.7 14.0 9.3 58 4.5 E 19 26 10 14 1022.1 1019.6 0.0
04/04:30pm 18.3 14.4 8.8 54 5.1 E 19 24 10 13 1021.6 1019.2 0.0
04/04:00pm 18.6 14.7 8.8 53 5.3 ESE 19 28 10 15 1021.6 1019.2 0.0
04/03:30pm 18.5 13.5 8.2 51 5.5 E 24 33 13 18 1021.4 1019.0 0.0
04/03:00pm 19.2 15.9 9.4 53 5.3 E 17 30 9 16 1021.6 1019.2 0.0
04/02:30pm 19.2 15.6 8.5 50 5.7 E 17 28 9 15 1021.7 1019.3 0.0
04/02:00pm 18.2 15.5 9.0 55 4.9 E 13 24 7 13 1021.9 1019.4 0.0
04/01:30pm 18.8 15.2 9.8 56 4.9 E 19 30 10 16 1022.2 1019.8 0.0
04/01:00pm 18.6 14.7 9.4 55 5.0 E 20 28 11 15 1022.4 1020.0 0.0
04/12:30pm 18.4 14.8 9.7 57 4.7 ENE 19 26 10 14 1022.7 1020.3 0.0
04/12:00pm 17.8 14.0 9.7 59 4.4 E 20 33 11 18 1023.1 1020.7 0.0
04/11:30am 17.4 13.6 9.1 58 4.5 E 19 26 10 14 1023.6 1021.2 0.0
04/11:00am 17.3 13.9 10.4 64 3.8 E 19 30 10 16 1023.9 1021.5 0.0
04/10:30am 16.5 13.0 10.1 66 3.5 ENE 19 26 10 14 1024.4 1022.0 0.0
04/10:00am 16.3 13.7 11.9 75 2.5 ENE 17 24 9 13 1024.8 1022.4 0.0
04/09:30am 15.3 11.9 11.1 76 2.3 E 20 28 11 15 1024.9 1022.6 0.0
04/09:00am 14.7 10.7 11.7 82 1.7 ENE 24 32 13 17 1024.8 1022.4 0.0
04/08:30am 13.6 10.3 11.5 87 1.2 E 20 26 11 14 1025.0 1022.7 0.0
04/08:26am 14.3 10.9 12.5 89 1.0 E 22 26 12 14 1024.9 1022.6 0.0
04/08:00am 13.1 10.1 12.6 97 0.3 E 20 24 11 13 1024.7 1022.3 0.0
04/07:30am 11.8 7.8 11.8 100 0.0 E 24 30 13 16 1024.5 1022.1 0.0
04/07:00am 11.4 8.0 11.4 100 0.0 E 20 28 11 15 1024.2 1021.8 0.0
04/06:30am 10.9 7.4 10.9 100 0.0 E 20 26 11 14 1023.9 1021.5 0.0
04/06:00am 10.5 6.5 10.5 100 0.0 E 22 28 12 15 1023.7 1021.3 0.0
04/05:30am 10.3 6.3 10.3 100 0.0 E 22 28 12 15 1023.3 1020.9 0.0
04/05:00am 10.3 5.9 10.3 100 0.0 E 24 30 13 16 1023.1 1020.7 0.0
04/04:30am 10.5 6.1 10.5 100 0.0 E 24 30 13 16 1022.7 1020.3 0.0
04/04:00am 10.6 6.3 10.6 100 0.0 E 24 32 13 17 1022.4 1020.0 0.0
04/03:30am 10.4 6.0 10.4 100 0.0 E 24 32 13 17 1022.2 1019.8 0.0
04/03:00am 10.5 5.8 10.5 100 0.0 ESE 26 35 14 19 1022.0 1019.5 0.0
04/02:30am 10.5 5.4 10.5 100 0.0 E 28 35 15 19 1021.5 1019.1 0.0
04/02:00am 10.6 5.5 10.6 100 0.0 E 28 35 15 19 1021.5 1019.1 0.0
04/01:30am 10.6 5.9 10.6 100 0.0 E 26 39 14 21 1021.7 1019.3 0.0
04/01:23am 10.5 6.1 10.5 100 0.0 E 24 32 13 17 1021.9 1019.4 0.0
04/01:00am 10.6 5.9 10.6 100 0.0 E 26 37 14 20 1022.0 1019.5 0.0
04/12:30am 10.5 6.1 10.5 100 0.0 E 24 32 13 17 1022.2 1019.8 0.0

Other formats

Comma delimited format used in spreadsheet applications
http://www.bom.gov.au/fwo/IDQ60801/IDQ60801.95551.axf

JavaScript Object Notation format (JSON) in row-major order
http://www.bom.gov.au/fwo/IDQ60801/IDQ60801.95551.json

Data quality

Most of these data are generated automatically and are frequently updated. Quality checks on data are not normally performed. It is possible for incorrect values to appear. Refer to information at About Latest Weather Observations and please check the disclaimer before using these data.